x

Stannard Rock, Mi (stdm4) Weather Station

8:00am - Mon 2nd Mar 2015 All times are CST. -6 hours from GMT.

  • Wind
    26mph, 28mph gusts
  • Air Temp 15°f
  • Sea Pressure 1029.1mb
  • Stannard Rock, Mi
  • Stannard Rock, Mi

More Historic Weather Station data

Upgrade to MSW Pro to gain access to the past 30 days of data for over 8000 Wavebouys and Weather Stations around the globe.

Join Pro

Comparision Forecast

View Surf forecast
   
Mon 03/02 8:00am 26 28 mph 1029.1mb 15f
7:00am 31 33 mph 1027.3mb 15f
6:00am 31 33 mph 1026.7mb 16f
5:00am 31 33 mph 1025.7mb 17f
4:00am 32 37 mph 1024.5mb 18f
3:00am 40 44 mph 1023.6mb 18f
2:00am 34 38 mph 1023.2mb 19f
1:00am 40 44 mph 1021.7mb 19f
12:00am 37 40 mph 1020.8mb 20f
Sun 03/01 11:00pm 36 38 mph 1019.6mb 21f
10:00pm 31 34 mph 1019.2mb 22f
9:00pm 32 34 mph 1018.1mb 23f
8:00pm 30 33 mph 1018.1mb 23f
7:00pm 31 33 mph 1018.6mb 22f
6:00pm 29 33 mph 1018.5mb 22f
5:00pm 23 25 mph 1018.6mb 22f
4:00pm 28 30 mph 1018.3mb 23f
3:00pm 17 20 mph 1019mb 22f
2:00pm 18 20 mph 1019.4mb 21f
1:00pm 26 29 mph 1020mb 20f
12:00pm 24 26 mph 1020.8mb 20f
11:00am 21 24 mph 1021.2mb 19f
10:00am 26 30 mph 1021.6mb 18f
9:00am 25 28 mph 1022mb 18f
8:00am 23 25 mph 1022.6mb 17f
7:00am 20 23 mph 1023mb 17f
6:00am 22 26 mph 1023.9mb 17f
5:00am 20 23 mph 1024.3mb 17f
4:00am 22 25 mph 1024.5mb 16f
3:00am 24 26 mph 1024.9mb 18f
2:00am 20 23 mph 1025.9mb 18f
1:00am 15 16 mph 1026.6mb 17f
12:00am 20 22 mph 1027mb 17f
Sat 02/28 11:00pm 21 23 mph 1027.2mb 17f
10:00pm 21 22 mph 1027.9mb 18f
9:00pm 23 26 mph 1028mb 19f
8:00pm 23 26 mph 1028.4mb 18f
7:00pm 24 28 mph 1028.7mb 19f
6:00pm 18 21 mph 1029mb 22f
5:00pm 17 18 mph 1029.5mb 22f
4:00pm 11 14 mph 1030.2mb 22f
3:00pm 11 14 mph 1031.4mb 20f
2:00pm 11 13 mph 1032.3mb 18f
1:00pm 13 15 mph 1033.2mb 18f
12:00pm 15 17 mph 1034.1mb 17f
11:00am 15 17 mph 1034.6mb 15f
10:00am 15 17 mph 1035mb 13f
9:00am 18 22 mph 1034.8mb 12f
8:00am 20 23 mph 1034.3mb 12f
7:00am 23 25 mph 1033.7mb 12f
6:00am 25 28 mph 1033.6mb 13f
5:00am 25 29 mph 1033mb 13f
4:00am 22 26 mph 1032.7mb 14f
3:00am 25 28 mph 1032.4mb 14f
2:00am 26 29 mph 1032.3mb 14f
1:00am 21 24 mph 1032.2mb 15f
12:00am 17 22 mph 1031.9mb 16f
Fri 02/27 11:00pm 16 18 mph 1031.8mb 16f
10:00pm 11 13 mph 1031.9mb 13f
9:00pm 14 16 mph 1031.7mb 14f
8:00pm 17 18 mph 1031.3mb 15f
7:00pm 18 21 mph 1030.9mb 16f
6:00pm 21 22 mph 1030.4mb 15f
5:00pm 17 20 mph 1030.6mb 15f
4:00pm 20 22 mph 1030.6mb 14f
3:00pm 25 29 mph 1030.7mb 13f
2:00pm 23 24 mph 1030.7mb 13f
1:00pm 20 23 mph 1030.9mb 11f
12:00pm 26 29 mph 1031.2mb 11f
11:00am 24 26 mph 1031.3mb 10f
10:00am 25 28 mph 1031mb 9f
9:00am 24 26 mph 1030.9mb 8f
8:00am 21 23 mph 1030.6mb 8f
7:00am 17 20 mph 1030.1mb 8f
6:00am 15 16 mph 1029.8mb 7f
5:00am 16 18 mph 1029.6mb 7f
4:00am 18 20 mph 1029mb 7f
3:00am 16 17 mph 1028.8mb 8f
2:00am 18
mph
1028.9mb 8f
1:00am 22 23 mph 1028.6mb 8f
12:00am 25 26 mph 1028.3mb 8f
Thu 02/26 11:00pm 21 22 mph 1028.2mb 9f
10:00pm 28 31 mph 1028.2mb 8f
9:00pm 29 31 mph 1028.2mb 7f
8:00pm 32 34 mph 1028.1mb 7f
7:00pm 26 32 mph 1028.4mb 6f
6:00pm 25 26 mph 1028mb 5f
5:00pm 22 24 mph 1028.1mb 5f
4:00pm 18 21 mph 1028.2mb 5f